createdAt,value
2019-03-28T00:02:11.861Z,7.10
2019-03-28T00:04:40.358Z,7.30
2019-03-28T00:07:08.768Z,7.30
2019-03-28T00:09:37.072Z,7.20
2019-03-28T00:12:05.269Z,7.20
2019-03-28T00:14:33.592Z,7.20
2019-03-28T00:17:01.753Z,7.20
2019-03-28T00:19:30.006Z,7.20
2019-03-28T00:21:58.310Z,7.20
2019-03-28T00:24:30.588Z,7.00
2019-03-28T00:26:59.043Z,7.20
2019-03-28T00:29:28.255Z,7.20
2019-03-28T00:31:56.807Z,7.20
2019-03-28T00:34:31.869Z,7.20
2019-03-28T00:37:03.741Z,7.10
2019-03-28T00:39:32.213Z,7.10
2019-03-28T00:42:01.744Z,7.10
2019-03-28T00:44:31.928Z,7.10
2019-03-28T00:47:04.438Z,7.00
2019-03-28T00:49:32.809Z,7.20
2019-03-28T00:52:01.572Z,7.10
2019-03-28T00:54:29.833Z,7.00
2019-03-28T00:56:59.349Z,7.00
2019-03-28T00:59:27.734Z,7.00
2019-03-28T01:01:56.224Z,7.00
2019-03-28T01:04:24.507Z,7.00
2019-03-28T01:06:53.014Z,7.00
2019-03-28T01:09:21.417Z,7.00
2019-03-28T01:11:49.732Z,7.00
2019-03-28T01:14:19.335Z,7.00
2019-03-28T01:16:47.699Z,7.00
2019-03-28T01:19:16.012Z,7.00
2019-03-28T01:21:44.303Z,7.00
2019-03-28T01:24:12.442Z,7.00
2019-03-28T01:26:51.909Z,7.10
2019-03-28T01:29:13.336Z,7.10
2019-03-28T01:31:41.558Z,7.10
2019-03-28T01:34:09.970Z,7.00
2019-03-28T01:36:38.283Z,7.10
2019-03-28T01:39:07.202Z,7.10
2019-03-28T01:41:35.642Z,7.10
2019-03-28T01:44:03.925Z,7.00
2019-03-28T01:46:32.142Z,7.00
2019-03-28T01:49:03.531Z,7.00
2019-03-28T01:51:31.193Z,7.00
2019-03-28T01:54:00.235Z,7.00
2019-03-28T01:56:28.542Z,7.00
2019-03-28T01:58:56.822Z,7.00
2019-03-28T02:01:25.199Z,7.00
2019-03-28T02:03:53.385Z,6.90
2019-03-28T02:06:21.616Z,6.80
2019-03-28T02:08:50.186Z,6.70
2019-03-28T02:11:18.480Z,6.80
2019-03-28T02:13:49.302Z,6.80
2019-03-28T02:16:17.526Z,6.80
2019-03-28T02:18:45.843Z,6.80
2019-03-28T02:21:14.105Z,6.90
2019-03-28T02:23:42.354Z,6.90
2019-03-28T02:26:16.876Z,7.00
2019-03-28T02:28:45.336Z,7.00
2019-03-28T02:31:13.599Z,7.00
2019-03-28T02:33:41.906Z,7.00
2019-03-28T02:36:13.457Z,7.00
2019-03-28T02:38:41.850Z,7.00
2019-03-28T02:41:10.662Z,7.00
2019-03-28T02:43:40.613Z,7.10
2019-03-28T02:46:09.654Z,7.00
2019-03-28T02:48:38.457Z,7.10
2019-03-28T02:51:06.939Z,7.10
2019-03-28T02:53:35.428Z,7.10
2019-03-28T02:56:03.666Z,7.10
2019-03-28T02:58:32.013Z,7.10
2019-03-28T03:01:00.668Z,7.10
2019-03-28T03:03:29.004Z,7.20
2019-03-28T03:05:57.566Z,7.20
2019-03-28T03:08:25.975Z,7.20
2019-03-28T03:10:54.396Z,7.20
2019-03-28T03:13:22.866Z,7.20
2019-03-28T03:15:51.532Z,7.20
2019-03-28T03:18:21.614Z,7.20
2019-03-28T03:20:50.125Z,7.20
2019-03-28T03:23:19.928Z,7.10
2019-03-28T03:25:48.600Z,7.20
2019-03-28T03:28:19.688Z,7.20
2019-03-28T03:30:50.253Z,7.20
2019-03-28T03:33:18.729Z,7.20
2019-03-28T03:35:47.102Z,7.10
2019-03-28T03:38:16.751Z,7.20
2019-03-28T03:40:45.088Z,7.20
2019-03-28T03:43:13.531Z,7.20
2019-03-28T03:45:41.808Z,7.20
2019-03-28T03:48:10.502Z,7.20
2019-03-28T03:50:39.885Z,7.20
2019-03-28T03:53:08.174Z,7.20
2019-03-28T03:55:36.500Z,7.30
2019-03-28T03:58:15.750Z,7.30
2019-03-28T04:00:35.976Z,7.20
2019-03-28T04:03:04.608Z,7.30
2019-03-28T04:05:32.949Z,7.30
2019-03-28T04:08:01.529Z,7.30
2019-03-28T04:10:30.055Z,7.40
2019-03-28T04:12:58.808Z,7.30
2019-03-28T04:15:27.107Z,7.40
2019-03-28T04:17:55.490Z,7.40
2019-03-28T04:20:24.981Z,7.40
2019-03-28T04:22:53.729Z,7.40
2019-03-28T04:25:22.748Z,7.40
2019-03-28T04:27:51.211Z,7.40
2019-03-28T04:30:20.713Z,7.40
2019-03-28T04:32:49.026Z,7.40
2019-03-28T04:35:17.478Z,7.40
2019-03-28T04:37:45.983Z,7.40
2019-03-28T04:40:14.362Z,7.40
2019-03-28T04:42:45.593Z,7.30
2019-03-28T04:45:12.995Z,7.30
2019-03-28T04:47:41.374Z,7.30
2019-03-28T04:50:10.435Z,7.30
2019-03-28T04:52:38.841Z,7.40
2019-03-28T04:55:07.498Z,7.40
2019-03-28T04:57:35.914Z,7.50
2019-03-28T05:00:05.025Z,7.50
2019-03-28T05:02:33.409Z,7.60
2019-03-28T05:05:01.931Z,7.60
2019-03-28T05:07:30.587Z,7.60
2019-03-28T05:09:58.961Z,7.60
2019-03-28T05:12:27.754Z,7.60
2019-03-28T05:14:56.405Z,7.40
2019-03-28T05:17:26.001Z,7.60
2019-03-28T05:19:54.564Z,7.70
2019-03-28T05:22:23.326Z,7.70
2019-03-28T05:24:51.771Z,7.70
2019-03-28T05:27:20.489Z,7.70
2019-03-28T05:29:49.004Z,7.70
2019-03-28T05:32:17.575Z,7.70
2019-03-28T05:34:45.957Z,7.70
2019-03-28T05:37:14.532Z,7.70
2019-03-28T05:39:43.003Z,7.70
2019-03-28T05:42:11.369Z,7.70
2019-03-28T05:44:39.835Z,7.80
2019-03-28T05:47:09.810Z,7.80
2019-03-28T05:49:38.582Z,7.80
2019-03-28T05:52:06.987Z,7.80
2019-03-28T05:54:35.745Z,7.90
2019-03-28T05:57:04.696Z,7.90
2019-03-28T05:59:33.237Z,7.90
2019-03-28T06:02:01.836Z,7.90
2019-03-28T06:04:30.384Z,7.90
2019-03-28T06:06:59.334Z,7.90
2019-03-28T06:09:30.932Z,7.90
2019-03-28T06:11:59.677Z,8.00
2019-03-28T06:14:28.016Z,8.00
2019-03-28T06:16:58.079Z,8.10
2019-03-28T06:19:26.771Z,8.10
2019-03-28T06:21:55.160Z,8.20
2019-03-28T06:24:28.925Z,8.30
2019-03-28T06:26:57.359Z,8.30
2019-03-28T06:29:25.961Z,8.40
2019-03-28T06:31:56.781Z,8.40
2019-03-28T06:34:28.566Z,8.50
2019-03-28T06:37:55.400Z,8.60
2019-03-28T06:40:23.802Z,8.60
2019-03-28T06:42:56.505Z,8.60
2019-03-28T06:45:24.575Z,8.60
2019-03-28T06:47:53.630Z,8.60
2019-03-28T06:50:24.929Z,8.70
2019-03-28T06:52:55.188Z,8.70
2019-03-28T06:55:24.122Z,8.70
2019-03-28T06:57:52.823Z,8.70
2019-03-28T07:00:21.943Z,8.80
2019-03-28T07:02:50.549Z,8.80
2019-03-28T07:05:22.252Z,8.90
2019-03-28T07:07:50.842Z,8.80
2019-03-28T07:10:20.768Z,8.90
2019-03-28T07:12:50.998Z,8.90
2019-03-28T07:15:20.559Z,8.90
2019-03-28T07:17:51.387Z,8.90
2019-03-28T07:20:20.580Z,8.90
2019-03-28T07:22:49.440Z,8.90
2019-03-28T07:25:21.500Z,9.10
2019-03-28T07:27:52.027Z,9.20
2019-03-28T07:30:24.619Z,9.30
2019-03-28T07:32:53.065Z,9.50
2019-03-28T07:35:24.424Z,9.70
2019-03-28T07:37:53.139Z,9.70
2019-03-28T07:40:21.897Z,9.70
2019-03-28T07:42:58.723Z,9.70
2019-03-28T07:45:27.608Z,9.70
2019-03-28T07:47:56.189Z,9.60
2019-03-28T07:50:28.257Z,9.70
2019-03-28T07:52:57.090Z,9.70
2019-03-28T07:55:25.921Z,9.90
2019-03-28T07:57:54.746Z,10.00
2019-03-28T08:00:27.438Z,10.20
2019-03-28T08:03:02.416Z,10.30
2019-03-28T08:05:31.084Z,10.20
2019-03-28T08:07:59.850Z,10.30
2019-03-28T08:12:58.269Z,10.20
2019-03-28T08:15:27.161Z,10.30
2019-03-28T08:17:56.244Z,10.10
2019-03-28T08:20:24.750Z,9.90
2019-03-28T08:22:53.719Z,9.90
2019-03-28T08:25:22.584Z,10.00
2019-03-28T08:27:51.000Z,10.10
2019-03-28T08:30:32.286Z,10.20
2019-03-28T08:33:02.828Z,10.30
2019-03-28T08:35:32.873Z,10.10
2019-03-28T08:38:01.684Z,10.10
2019-03-28T08:40:39.874Z,10.00
2019-03-28T08:43:09.195Z,10.10
2019-03-28T08:45:37.623Z,10.10
2019-03-28T08:48:06.333Z,10.20
2019-03-28T08:50:34.890Z,10.40
2019-03-28T08:53:03.335Z,10.50
2019-03-28T08:55:31.820Z,10.40
2019-03-28T08:58:01.880Z,10.30
2019-03-28T09:00:50.391Z,10.30
2019-03-28T09:03:08.933Z,10.40
2019-03-28T09:05:37.399Z,10.40
2019-03-28T09:08:10.247Z,10.50
2019-03-28T09:10:44.672Z,10.60
2019-03-28T09:13:19.274Z,10.50
2019-03-28T09:15:45.721Z,10.40
2019-03-28T09:18:14.686Z,10.40
2019-03-28T09:20:43.348Z,10.40
2019-03-28T09:23:14.808Z,10.50
2019-03-28T09:25:43.680Z,10.60
2019-03-28T09:28:14.564Z,10.60
2019-03-28T09:30:48.787Z,10.70
2019-03-28T09:33:16.868Z,10.80
2019-03-28T09:35:45.956Z,10.70
2019-03-28T09:38:15.073Z,10.80
2019-03-28T09:40:43.968Z,10.90
2019-03-28T09:43:12.938Z,11.00
2019-03-28T09:45:42.050Z,11.40
2019-03-28T09:48:11.859Z,11.30
2019-03-28T09:50:41.921Z,11.10
2019-03-28T09:53:10.519Z,11.10
2019-03-28T09:55:41.138Z,11.30
2019-03-28T09:58:09.483Z,11.40
2019-03-28T10:00:38.177Z,11.50
2019-03-28T10:03:07.013Z,11.30
2019-03-28T10:05:37.929Z,11.10
2019-03-28T10:08:05.890Z,11.20
2019-03-28T10:10:34.821Z,11.40
2019-03-28T10:13:03.351Z,11.60
2019-03-28T10:15:31.950Z,11.60
2019-03-28T10:18:00.284Z,11.60
2019-03-28T10:20:28.785Z,11.60
2019-03-28T10:22:57.193Z,11.40
2019-03-28T10:25:25.581Z,11.50
2019-03-28T10:27:55.296Z,11.50
2019-03-28T10:30:38.069Z,11.40
2019-03-28T10:33:06.887Z,11.40
2019-03-28T10:35:35.933Z,11.50
2019-03-28T10:38:05.117Z,11.60
2019-03-28T10:40:34.839Z,11.30
2019-03-28T10:43:03.704Z,11.40
2019-03-28T10:45:35.832Z,11.60
2019-03-28T10:48:04.835Z,11.50
2019-03-28T10:50:41.326Z,11.60
2019-03-28T10:53:03.975Z,11.40
2019-03-28T10:55:32.812Z,11.10
2019-03-28T10:58:01.323Z,11.30
2019-03-28T11:00:30.019Z,11.40
2019-03-28T11:02:58.724Z,11.70
2019-03-28T11:05:27.588Z,11.40
2019-03-28T11:07:56.432Z,11.10
2019-03-28T11:10:26.656Z,10.80
2019-03-28T11:12:56.723Z,10.60
2019-03-28T11:15:25.294Z,10.80
2019-03-28T11:17:53.848Z,11.10
2019-03-28T11:20:22.227Z,11.40
2019-03-28T11:22:50.801Z,11.10
2019-03-28T11:25:19.272Z,11.40
2019-03-28T11:27:47.903Z,11.40
2019-03-28T11:30:18.368Z,11.20
2019-03-28T11:32:47.082Z,11.30
2019-03-28T11:35:17.112Z,11.30
2019-03-28T11:37:45.728Z,11.30
2019-03-28T11:40:15.070Z,11.30
2019-03-28T11:42:43.552Z,10.80
2019-03-28T11:45:12.232Z,10.40
2019-03-28T11:47:40.712Z,10.40
2019-03-28T11:50:09.671Z,10.40
2019-03-28T11:52:38.190Z,10.40
2019-03-28T11:55:07.866Z,10.60
2019-03-28T11:57:36.310Z,10.70
2019-03-28T12:00:06.326Z,10.80
2019-03-28T12:02:34.644Z,10.90
2019-03-28T12:05:03.615Z,11.20
2019-03-28T12:07:32.149Z,11.30
2019-03-28T12:10:04.800Z,11.40
2019-03-28T12:12:33.295Z,11.60
2019-03-28T12:15:02.051Z,11.70
2019-03-28T12:17:31.121Z,11.80
2019-03-28T12:20:02.125Z,12.00
2019-03-28T12:22:30.889Z,11.90
2019-03-28T12:24:59.699Z,11.70
2019-03-28T12:27:28.201Z,11.60
2019-03-28T12:29:56.777Z,11.10
2019-03-28T12:32:25.200Z,11.20
2019-03-28T12:34:53.585Z,11.00
2019-03-28T12:37:22.048Z,11.20
2019-03-28T12:39:50.630Z,11.20
2019-03-28T12:42:19.118Z,11.20
2019-03-28T12:44:56.911Z,11.30
2019-03-28T12:47:17.979Z,11.30
2019-03-28T12:49:46.264Z,11.30
2019-03-28T12:52:14.787Z,11.30
2019-03-28T12:54:44.265Z,11.40
2019-03-28T12:57:14.393Z,11.50
2019-03-28T12:59:44.681Z,11.60
2019-03-28T13:02:26.905Z,11.70
2019-03-28T13:04:44.593Z,11.80
2019-03-28T13:07:13.040Z,11.80
2019-03-28T13:09:41.386Z,11.80
2019-03-28T13:12:09.582Z,11.90
2019-03-28T13:14:38.322Z,11.70
2019-03-28T13:17:09.491Z,11.70
2019-03-28T13:19:37.950Z,11.90
2019-03-28T13:22:06.412Z,11.80
2019-03-28T13:24:34.962Z,12.00
2019-03-28T13:27:03.439Z,12.10
2019-03-28T13:29:31.995Z,12.20
2019-03-28T13:32:00.350Z,12.30
2019-03-28T13:34:28.623Z,12.40
2019-03-28T13:36:57.031Z,12.50
2019-03-28T13:39:25.514Z,12.40
2019-03-28T13:41:54.076Z,12.40
2019-03-28T13:44:22.722Z,12.40
2019-03-28T13:46:51.387Z,12.50
2019-03-28T13:49:19.903Z,12.70
2019-03-28T13:51:48.260Z,12.80
2019-03-28T13:54:16.571Z,12.70
2019-03-28T13:56:44.975Z,12.80
2019-03-28T13:59:13.234Z,12.90
2019-03-28T14:01:41.795Z,12.80
2019-03-28T14:04:14.399Z,12.90
2019-03-28T14:06:46.458Z,12.90
2019-03-28T14:09:11.114Z,13.00
2019-03-28T14:11:39.777Z,12.90
2019-03-28T14:14:09.145Z,12.90
2019-03-28T14:16:37.476Z,12.80
2019-03-28T14:19:05.816Z,12.90
2019-03-28T14:21:34.348Z,12.90
2019-03-28T14:24:03.023Z,12.90
2019-03-28T14:26:31.386Z,12.90
2019-03-28T14:28:59.884Z,12.80
2019-03-28T14:31:28.220Z,12.70
2019-03-28T14:33:56.702Z,12.60
2019-03-28T14:36:25.534Z,12.60
2019-03-28T14:38:53.956Z,12.70
2019-03-28T14:41:22.607Z,12.60
2019-03-28T14:43:51.130Z,12.60
2019-03-28T14:46:19.683Z,12.50
2019-03-28T14:48:48.220Z,12.50
2019-03-28T14:51:16.601Z,12.40
2019-03-28T14:53:45.075Z,12.30
2019-03-28T14:56:13.815Z,12.20
2019-03-28T14:58:43.934Z,12.20
2019-03-28T15:01:15.570Z,12.20
2019-03-28T15:03:43.895Z,12.10
2019-03-28T15:06:12.383Z,12.10
2019-03-28T15:08:40.746Z,12.10
2019-03-28T15:11:09.941Z,12.10
2019-03-28T15:13:40.478Z,12.20
2019-03-28T15:16:08.364Z,12.20
2019-03-28T15:18:36.841Z,12.20
2019-03-28T15:21:05.318Z,12.20
2019-03-28T15:23:33.686Z,12.20
2019-03-28T15:26:02.914Z,12.10
2019-03-28T15:28:31.293Z,12.20
2019-03-28T15:30:59.614Z,12.10
2019-03-28T15:33:38.764Z,12.00
2019-03-28T15:35:58.449Z,12.10
2019-03-28T15:38:26.914Z,12.00
2019-03-28T15:40:57.918Z,12.10
2019-03-28T15:43:26.576Z,12.10
2019-03-28T15:45:55.065Z,12.10
2019-03-28T15:48:28.619Z,12.20
2019-03-28T15:50:56.842Z,12.20
2019-03-28T15:53:31.748Z,12.10
2019-03-28T15:56:00.199Z,12.00
2019-03-28T15:58:28.417Z,11.90
2019-03-28T16:00:56.882Z,11.90
2019-03-28T16:03:25.276Z,11.80
2019-03-28T16:05:58.389Z,11.80
2019-03-28T16:08:24.282Z,11.70
2019-03-28T16:10:53.249Z,11.60
2019-03-28T16:13:22.890Z,11.90
2019-03-28T16:15:51.458Z,11.80
2019-03-28T16:18:19.742Z,11.80
2019-03-28T16:20:53.258Z,11.70
2019-03-28T16:23:20.107Z,11.70
2019-03-28T16:25:48.583Z,11.70
2019-03-28T16:28:17.127Z,11.70
2019-03-28T16:30:45.548Z,11.70
2019-03-28T16:33:15.352Z,11.60
2019-03-28T16:35:43.718Z,11.50
2019-03-28T16:38:12.093Z,11.40
2019-03-28T16:40:40.685Z,11.60
2019-03-28T16:43:09.034Z,11.60
2019-03-28T16:45:37.308Z,11.60
2019-03-28T16:48:05.871Z,11.70
2019-03-28T16:50:34.363Z,11.60
2019-03-28T16:53:03.394Z,11.50
2019-03-28T16:55:31.666Z,11.50
2019-03-28T16:58:00.261Z,11.40
2019-03-28T17:00:36.190Z,11.30
2019-03-28T17:03:04.861Z,11.20
2019-03-28T17:05:34.791Z,11.10
2019-03-28T17:08:04.388Z,11.00
2019-03-28T17:10:51.929Z,10.90
2019-03-28T17:13:20.194Z,10.80
2019-03-28T17:15:48.823Z,10.60
2019-03-28T17:18:18.722Z,10.60
2019-03-28T17:20:47.302Z,10.60
2019-03-28T17:23:15.664Z,10.60
2019-03-28T17:25:44.128Z,10.50
2019-03-28T17:28:15.305Z,10.50
2019-03-28T17:30:43.874Z,10.40
2019-03-28T17:33:12.228Z,10.40
2019-03-28T17:35:40.929Z,10.30
2019-03-28T17:38:09.398Z,10.20
2019-03-28T17:40:37.651Z,10.10
2019-03-28T17:43:06.091Z,10.10
2019-03-28T17:45:34.479Z,10.10
2019-03-28T17:48:03.004Z,10.10
2019-03-28T17:50:31.232Z,9.90
2019-03-28T17:52:59.407Z,9.80
2019-03-28T17:55:27.778Z,9.70
2019-03-28T17:57:56.172Z,9.60
2019-03-28T18:00:27.817Z,9.60
2019-03-28T18:03:08.128Z,9.40
2019-03-28T18:05:25.630Z,9.30
2019-03-28T18:07:54.392Z,9.20
2019-03-28T18:10:22.766Z,9.00
2019-03-28T18:12:51.168Z,8.90
2019-03-28T18:15:19.605Z,8.90
2019-03-28T18:17:48.038Z,8.80
2019-03-28T18:20:18.731Z,8.80
2019-03-28T18:23:09.404Z,8.80
2019-03-28T18:25:38.074Z,8.70
2019-03-28T18:28:06.383Z,8.60
2019-03-28T18:30:37.246Z,8.60
2019-03-28T18:33:05.082Z,8.50
2019-03-28T18:35:34.163Z,8.50
2019-03-28T18:38:03.358Z,8.50
2019-03-28T18:40:31.698Z,8.40
2019-03-28T18:43:01.583Z,8.30
2019-03-28T18:45:30.279Z,8.50
2019-03-28T18:47:58.668Z,8.40
2019-03-28T18:50:28.976Z,8.50
2019-03-28T18:52:57.311Z,8.30
2019-03-28T18:55:25.553Z,8.30
2019-03-28T18:57:54.192Z,8.40
2019-03-28T19:00:22.663Z,8.60
2019-03-28T19:02:51.164Z,8.40
2019-03-28T19:05:20.499Z,8.40
2019-03-28T19:07:48.769Z,8.50
2019-03-28T19:10:17.361Z,8.50
2019-03-28T19:12:47.807Z,8.40
2019-03-28T19:15:16.816Z,8.40
2019-03-28T19:17:45.150Z,8.40
2019-03-28T19:20:15.462Z,8.30
2019-03-28T19:22:43.797Z,8.20
2019-03-28T19:25:12.441Z,8.20
2019-03-28T19:27:40.816Z,8.30
2019-03-28T19:30:10.018Z,8.30
2019-03-28T19:32:38.361Z,8.30
2019-03-28T19:35:07.874Z,8.30
2019-03-28T19:37:37.356Z,8.30
2019-03-28T19:40:07.063Z,8.40
2019-03-28T19:42:35.804Z,8.50
2019-03-28T19:45:04.547Z,8.50
2019-03-28T19:47:32.938Z,8.40
2019-03-28T19:50:01.503Z,8.30
2019-03-28T19:52:31.780Z,8.20
2019-03-28T19:55:00.059Z,8.10
2019-03-28T19:57:31.079Z,8.10
2019-03-28T19:59:59.513Z,8.10
2019-03-28T20:02:29.561Z,8.10
2019-03-28T20:05:01.045Z,8.00
2019-03-28T20:07:30.053Z,8.00
2019-03-28T20:09:58.501Z,7.90
2019-03-28T20:12:29.690Z,7.80
2019-03-28T20:15:00.302Z,7.80
2019-03-28T20:17:29.179Z,7.80
2019-03-28T20:19:57.596Z,7.50
2019-03-28T20:22:27.258Z,7.70
2019-03-28T20:24:58.265Z,7.70
2019-03-28T20:27:26.800Z,7.60
2019-03-28T20:30:02.929Z,7.50
2019-03-28T20:32:31.455Z,7.40
2019-03-28T20:35:05.433Z,7.40
2019-03-28T20:37:33.995Z,7.40
2019-03-28T20:40:02.684Z,7.20
2019-03-28T20:42:32.244Z,7.20
2019-03-28T20:45:00.979Z,7.20
2019-03-28T20:47:29.825Z,7.10
2019-03-28T20:49:58.314Z,7.00
2019-03-28T20:52:26.824Z,7.10
2019-03-28T20:54:55.589Z,7.00
2019-03-28T20:57:25.865Z,7.00
2019-03-28T20:59:54.436Z,6.90
2019-03-28T21:02:23.282Z,6.80
2019-03-28T21:04:51.798Z,6.90
2019-03-28T21:07:23.048Z,6.80
2019-03-28T21:09:53.014Z,6.90
2019-03-28T21:12:21.785Z,6.80
2019-03-28T21:14:50.805Z,6.80
2019-03-28T21:17:19.498Z,6.70
2019-03-28T21:19:48.181Z,6.60
2019-03-28T21:22:16.673Z,6.60
2019-03-28T21:24:45.085Z,6.50
2019-03-28T21:27:13.860Z,6.50
2019-03-28T21:29:49.080Z,6.50
2019-03-28T21:32:18.883Z,6.50
2019-03-28T21:34:48.894Z,6.50
2019-03-28T21:37:17.759Z,6.40
2019-03-28T21:39:46.181Z,6.50
2019-03-28T21:42:14.696Z,6.50
2019-03-28T21:44:43.477Z,6.50
2019-03-28T21:47:12.426Z,6.40
2019-03-28T21:49:40.942Z,6.50
2019-03-28T21:52:09.539Z,6.50
2019-03-28T21:54:38.305Z,6.50
2019-03-28T21:57:07.071Z,6.50
2019-03-28T21:59:35.568Z,6.40
2019-03-28T22:02:04.300Z,6.30
2019-03-28T22:04:33.430Z,6.20
2019-03-28T22:07:03.412Z,6.30
2019-03-28T22:09:32.764Z,6.10
2019-03-28T22:12:02.802Z,6.10
2019-03-28T22:14:31.950Z,5.90
2019-03-28T22:17:01.108Z,5.80
2019-03-28T22:19:30.462Z,5.80
2019-03-28T22:21:59.063Z,5.80
2019-03-28T22:24:32.184Z,5.80
2019-03-28T22:26:59.109Z,5.80
2019-03-28T22:29:27.851Z,5.70
2019-03-28T22:31:56.949Z,5.60
2019-03-28T22:34:25.884Z,5.70
2019-03-28T22:36:57.724Z,5.70
2019-03-28T22:39:25.169Z,5.60
2019-03-28T22:41:53.595Z,5.60
2019-03-28T22:44:22.350Z,5.60
2019-03-28T22:46:52.002Z,5.70
2019-03-28T22:49:20.674Z,5.80
2019-03-28T22:51:53.399Z,6.00
2019-03-28T22:54:21.970Z,6.20
2019-03-28T22:56:50.669Z,5.90
2019-03-28T22:59:19.847Z,5.80
2019-03-28T23:01:48.673Z,5.60
2019-03-28T23:04:17.216Z,5.60
2019-03-28T23:06:45.889Z,5.70
2019-03-28T23:09:14.421Z,5.60
2019-03-28T23:11:42.854Z,5.60
2019-03-28T23:14:12.172Z,5.40
2019-03-28T23:16:55.035Z,5.40
2019-03-28T23:19:21.345Z,5.30
2019-03-28T23:21:50.008Z,5.40
2019-03-28T23:24:18.620Z,5.30
2019-03-28T23:26:47.952Z,5.30
2019-03-28T23:29:17.577Z,5.30
2019-03-28T23:31:50.727Z,5.30
2019-03-28T23:34:20.788Z,5.30
2019-03-28T23:36:49.397Z,5.20
2019-03-28T23:39:18.036Z,5.10
2019-03-28T23:41:47.804Z,5.00
2019-03-28T23:44:16.917Z,5.00
2019-03-28T23:46:45.848Z,4.80
2019-03-28T23:49:14.456Z,4.70
2019-03-28T23:51:43.056Z,4.60
2019-03-28T23:54:11.523Z,4.50
2019-03-28T23:56:41.643Z,4.40
2019-03-28T23:59:13.322Z,4.50
